Terminal Aerodrome Forecast
Issued by NWS

Home | Current Version | Previous Version | Text Only | Print | Product List | Glossary On
Versions: 1 2 3 4 5 6 7 8 9 10 11 12 13 14
000
FTUS44 KMAF 291700
TAFFST
TAF
KFST 291720Z 2918/3018 02005KT P6SM SCT070
     FM300100 14007KT P6SM SKC
     FM301200 17007KT P6SM SKC
     FM301600 13006KT P6SM SCT050=

USA.gov is the U.S. government's official web portal to all federal, state and local government web resources and services.